createdAt,value
2019-03-08T00:00:25.737Z,7.35
2019-03-08T00:02:54.323Z,7.22
2019-03-08T00:05:25.417Z,7.38
2019-03-08T00:07:53.902Z,7.29
2019-03-08T00:10:23.866Z,7.37
2019-03-08T00:12:52.324Z,7.46
2019-03-08T00:15:21.000Z,7.28
2019-03-08T00:17:49.456Z,7.62
2019-03-08T00:20:18.152Z,7.37
2019-03-08T00:22:48.207Z,7.30
2019-03-08T00:25:16.890Z,7.33
2019-03-08T00:27:45.401Z,7.63
2019-03-08T00:30:15.644Z,7.54
2019-03-08T00:32:44.468Z,7.40
2019-03-08T00:35:13.743Z,7.32
2019-03-08T00:37:42.290Z,7.28
2019-03-08T00:40:15.165Z,7.17
2019-03-08T00:42:43.659Z,7.24
2019-03-08T00:45:14.294Z,7.33
2019-03-08T00:47:43.662Z,7.12
2019-03-08T00:50:14.017Z,7.03
2019-03-08T00:52:42.683Z,6.95
2019-03-08T00:55:12.323Z,6.84
2019-03-08T00:57:40.945Z,6.95
2019-03-08T01:00:15.841Z,6.94
2019-03-08T01:02:45.262Z,6.73
2019-03-08T01:05:18.484Z,6.76
2019-03-08T01:07:49.375Z,6.67
2019-03-08T01:10:20.085Z,6.63
2019-03-08T01:12:50.389Z,6.60
2019-03-08T01:15:19.213Z,6.58
2019-03-08T01:17:47.945Z,6.52
2019-03-08T01:20:18.499Z,6.46
2019-03-08T01:22:47.144Z,6.40
2019-03-08T01:25:16.789Z,6.36
2019-03-08T01:28:00.213Z,6.45
2019-03-08T01:30:28.942Z,6.24
2019-03-08T01:32:57.417Z,6.19
2019-03-08T01:35:26.203Z,6.17
2019-03-08T01:37:54.989Z,6.17
2019-03-08T01:40:24.806Z,6.11
2019-03-08T01:42:53.405Z,6.34
2019-03-08T01:45:22.182Z,6.12
2019-03-08T01:47:50.664Z,6.02
2019-03-08T01:50:19.569Z,6.01
2019-03-08T01:52:48.379Z,6.17
2019-03-08T01:55:17.231Z,6.01
2019-03-08T01:57:45.697Z,5.95
2019-03-08T02:00:19.502Z,5.97
2019-03-08T02:02:48.407Z,6.08
2019-03-08T02:05:17.413Z,5.97
2019-03-08T02:07:46.801Z,5.92
2019-03-08T02:10:16.893Z,5.88
2019-03-08T02:12:46.938Z,6.00
2019-03-08T02:15:17.400Z,5.95
2019-03-08T02:17:46.893Z,5.90
2019-03-08T02:20:18.058Z,5.94
2019-03-08T02:22:47.094Z,5.89
2019-03-08T02:25:16.391Z,6.05
2019-03-08T02:27:45.083Z,5.87
2019-03-08T02:30:15.643Z,5.84
2019-03-08T02:32:44.785Z,5.86
2019-03-08T02:35:14.979Z,5.82
2019-03-08T02:37:44.023Z,5.82
2019-03-08T02:40:31.571Z,5.83
2019-03-08T02:43:02.384Z,5.79
2019-03-08T02:45:33.361Z,5.84
2019-03-08T02:48:01.943Z,5.80
2019-03-08T02:50:30.570Z,5.77
2019-03-08T02:52:59.264Z,5.80
2019-03-08T02:55:27.879Z,5.77
2019-03-08T02:57:56.524Z,5.75
2019-03-08T03:00:31.359Z,5.75
2019-03-08T03:02:59.844Z,5.75
2019-03-08T03:05:28.461Z,5.75
2019-03-08T03:07:58.716Z,5.74
2019-03-08T03:10:27.212Z,5.74
2019-03-08T03:12:55.708Z,5.76
2019-03-08T03:15:25.157Z,5.74
2019-03-08T03:17:53.628Z,5.72
2019-03-08T03:20:41.043Z,5.73
2019-03-08T03:23:09.908Z,5.72
2019-03-08T03:25:38.412Z,5.71
2019-03-08T03:28:07.866Z,5.72
2019-03-08T03:30:36.397Z,5.72
2019-03-08T03:33:05.767Z,5.70
2019-03-08T03:35:34.471Z,5.70
2019-03-08T03:38:05.563Z,5.72
2019-03-08T03:40:35.128Z,5.70
2019-03-08T03:43:03.778Z,5.69
2019-03-08T03:45:33.371Z,5.72
2019-03-08T03:48:01.853Z,5.74
2019-03-08T03:50:30.590Z,5.73
2019-03-08T03:52:59.358Z,5.74
2019-03-08T03:55:29.311Z,5.76
2019-03-08T03:57:58.027Z,5.83
2019-03-08T04:00:26.570Z,5.79
2019-03-08T04:02:55.378Z,5.79
2019-03-08T04:05:24.026Z,5.82
2019-03-08T04:07:52.491Z,5.82
2019-03-08T04:10:22.726Z,5.78
2019-03-08T04:12:51.270Z,5.87
2019-03-08T04:15:23.079Z,5.84
2019-03-08T04:17:52.949Z,5.82
2019-03-08T04:20:21.955Z,5.82
2019-03-08T04:22:50.481Z,5.81
2019-03-08T04:25:19.165Z,5.81
2019-03-08T04:27:47.719Z,5.82
2019-03-08T04:30:20.846Z,5.82
2019-03-08T04:32:49.387Z,5.85
2019-03-08T04:35:18.047Z,5.90
2019-03-08T04:37:46.616Z,5.89
2019-03-08T04:40:15.596Z,5.87
2019-03-08T04:42:44.300Z,5.90
2019-03-08T04:45:15.744Z,5.94
2019-03-08T04:47:44.358Z,5.93
2019-03-08T04:50:16.116Z,5.92
2019-03-08T04:52:45.072Z,5.89
2019-03-08T04:55:18.080Z,5.89
2019-03-08T04:57:47.062Z,5.90
2019-03-08T05:00:19.093Z,5.93
2019-03-08T05:02:50.599Z,5.93
2019-03-08T05:05:19.310Z,5.85
2019-03-08T05:07:47.937Z,5.84
2019-03-08T05:10:18.045Z,5.82
2019-03-08T05:12:48.967Z,5.85
2019-03-08T05:15:20.738Z,5.81
2019-03-08T05:17:52.119Z,5.83
2019-03-08T05:20:21.973Z,5.81
2019-03-08T05:22:52.689Z,5.80
2019-03-08T05:25:21.469Z,5.80
2019-03-08T05:27:50.073Z,5.87
2019-03-08T05:30:18.991Z,5.81
2019-03-08T05:32:48.682Z,5.80
2019-03-08T05:35:19.075Z,5.84
2019-03-08T05:37:50.491Z,5.84
2019-03-08T05:40:20.786Z,5.83
2019-03-08T05:42:49.263Z,5.86
2019-03-08T05:45:37.123Z,5.85
2019-03-08T05:48:05.863Z,5.86
2019-03-08T05:50:34.428Z,5.83
2019-03-08T05:53:02.892Z,5.84
2019-03-08T05:55:31.465Z,5.83
2019-03-08T05:58:01.485Z,5.86
2019-03-08T06:00:35.251Z,5.82
2019-03-08T06:03:04.265Z,5.82
2019-03-08T06:05:34.923Z,5.79
2019-03-08T06:08:03.464Z,5.79
2019-03-08T06:10:34.029Z,5.80
2019-03-08T06:13:03.934Z,5.87
2019-03-08T06:15:32.472Z,5.81
2019-03-08T06:18:01.118Z,5.79
2019-03-08T06:20:29.862Z,5.77
2019-03-08T06:23:04.580Z,5.75
2019-03-08T06:25:33.296Z,5.75
2019-03-08T06:28:01.849Z,5.71
2019-03-08T06:30:30.406Z,5.70
2019-03-08T06:32:58.883Z,5.76
2019-03-08T06:35:30.488Z,5.75
2019-03-08T06:37:59.091Z,5.86
2019-03-08T06:40:29.190Z,5.74
2019-03-08T06:42:57.677Z,5.63
2019-03-08T06:45:26.232Z,5.63
2019-03-08T06:47:55.300Z,5.53
2019-03-08T06:50:23.894Z,5.51
2019-03-08T06:52:52.419Z,5.53
2019-03-08T06:55:22.696Z,5.49
2019-03-08T06:58:00.233Z,5.50
2019-03-08T07:00:33.428Z,5.47
2019-03-08T07:03:02.095Z,5.54
2019-03-08T07:05:31.628Z,5.49
2019-03-08T07:08:00.200Z,5.50
2019-03-08T07:10:28.730Z,5.50
2019-03-08T07:13:03.385Z,5.48
2019-03-08T07:15:29.956Z,5.47
2019-03-08T07:17:58.846Z,5.49
2019-03-08T07:20:34.594Z,5.47
2019-03-08T07:23:04.730Z,5.42
2019-03-08T07:25:50.958Z,5.48
2019-03-08T07:28:14.111Z,5.52
2019-03-08T07:30:44.295Z,5.57
2019-03-08T07:33:17.327Z,5.58
2019-03-08T07:35:59.879Z,5.53
2019-03-08T07:38:29.972Z,5.52
2019-03-08T07:41:03.064Z,5.55
2019-03-08T07:43:36.154Z,5.55
2019-03-08T07:46:24.404Z,5.49
2019-03-08T07:48:56.077Z,5.41
2019-03-08T07:51:28.677Z,5.38
2019-03-08T07:54:11.161Z,5.35
2019-03-08T07:56:41.269Z,5.30
2019-03-08T07:59:20.261Z,5.25
2019-03-08T08:01:56.116Z,5.27
2019-03-08T08:04:44.901Z,5.26
2019-03-08T08:07:31.011Z,5.28
2019-03-08T08:10:03.791Z,5.30
2019-03-08T08:12:36.618Z,5.36
2019-03-08T08:15:18.863Z,5.38
2019-03-08T08:17:54.579Z,5.43
2019-03-08T08:20:25.015Z,5.49
2019-03-08T08:22:55.122Z,5.56
2019-03-08T08:25:40.579Z,5.65
2019-03-08T08:28:27.659Z,5.75
2019-03-08T08:31:02.777Z,5.75
2019-03-08T08:33:48.881Z,5.78
2019-03-08T08:36:25.449Z,5.76
2019-03-08T08:38:58.569Z,5.74
2019-03-08T08:41:31.513Z,5.74
2019-03-08T08:44:01.754Z,5.67
2019-03-08T08:46:48.373Z,5.65
2019-03-08T08:49:37.755Z,5.66
2019-03-08T08:52:21.578Z,5.65
2019-03-08T08:54:51.676Z,5.78
2019-03-08T08:57:27.840Z,6.07
2019-03-08T08:59:57.955Z,6.26
2019-03-08T09:05:35.560Z,6.78
2019-03-08T09:08:14.905Z,7.64
2019-03-08T09:10:49.138Z,7.91
2019-03-08T09:13:19.301Z,7.69
2019-03-08T09:15:52.134Z,7.70
2019-03-08T09:18:24.975Z,7.29
2019-03-08T09:20:58.054Z,7.16
2019-03-08T09:23:28.188Z,6.95
2019-03-08T09:26:15.832Z,6.84
2019-03-08T09:28:54.411Z,6.34
2019-03-08T09:31:39.572Z,6.61
2019-03-08T09:34:09.750Z,7.04
2019-03-08T09:36:42.413Z,7.40
2019-03-08T09:39:28.585Z,7.45
2019-03-08T09:41:58.758Z,7.51
2019-03-08T09:44:45.464Z,8.03
2019-03-08T09:47:16.698Z,8.67
2019-03-08T09:49:51.794Z,9.23
2019-03-08T09:52:26.386Z,9.18
2019-03-08T09:55:02.261Z,8.99
2019-03-08T09:57:41.900Z,8.29
2019-03-08T10:00:16.666Z,8.13
2019-03-08T10:03:04.402Z,8.09
2019-03-08T10:08:39.682Z,8.28
2019-03-08T10:11:09.812Z,8.63
2019-03-08T10:13:42.657Z,8.74
2019-03-08T10:16:18.315Z,8.78
2019-03-08T10:18:48.453Z,8.73
2019-03-08T10:21:21.296Z,8.77
2019-03-08T10:23:51.653Z,8.95
2019-03-08T10:26:21.872Z,8.91
2019-03-08T10:28:52.005Z,9.04
2019-03-08T10:31:22.181Z,8.96
2019-03-08T10:33:55.314Z,8.60
2019-03-08T10:36:37.700Z,8.31
2019-03-08T10:39:09.842Z,8.27
2019-03-08T10:41:40.028Z,8.11
2019-03-08T10:44:28.434Z,8.06
2019-03-08T10:47:16.922Z,8.01
2019-03-08T10:49:55.401Z,8.27
2019-03-08T10:52:30.216Z,8.29
2019-03-08T10:55:05.731Z,8.47
2019-03-08T10:57:38.793Z,8.60
2019-03-08T11:00:15.144Z,8.78
2019-03-08T11:02:48.256Z,8.79
2019-03-08T11:05:18.971Z,8.70
2019-03-08T11:07:58.243Z,8.67
2019-03-08T11:10:31.701Z,8.74
2019-03-08T11:13:01.969Z,8.77
2019-03-08T11:15:35.026Z,8.76
2019-03-08T11:18:05.153Z,8.87
2019-03-08T11:20:47.352Z,8.90
2019-03-08T11:23:17.541Z,8.86
2019-03-08T11:25:50.034Z,8.94
2019-03-08T11:28:21.304Z,8.93
2019-03-08T11:30:54.753Z,9.08
2019-03-08T11:33:30.481Z,9.13
2019-03-08T11:36:15.401Z,9.25
2019-03-08T11:38:48.329Z,9.01
2019-03-08T11:41:24.199Z,9.05
2019-03-08T11:43:56.756Z,9.06
2019-03-08T11:46:29.425Z,9.11
2019-03-08T11:48:59.617Z,9.22
2019-03-08T11:51:29.744Z,9.28
2019-03-08T11:54:52.910Z,9.14
2019-03-08T11:57:31.867Z,9.09
2019-03-08T12:02:50.391Z,9.10
2019-03-08T12:05:36.667Z,9.00
2019-03-08T12:08:09.879Z,9.18
2019-03-08T12:10:42.977Z,9.06
2019-03-08T12:13:14.624Z,9.18
2019-03-08T12:15:44.951Z,9.20
2019-03-08T12:18:22.074Z,9.20
2019-03-08T12:20:57.007Z,9.14
2019-03-08T12:23:31.130Z,9.34
2019-03-08T12:26:07.559Z,9.44
2019-03-08T12:28:40.721Z,9.39
2019-03-08T12:31:26.218Z,9.42
2019-03-08T12:34:49.018Z,9.33
2019-03-08T12:37:19.160Z,9.28
2019-03-08T12:39:55.217Z,9.30
2019-03-08T12:42:31.455Z,9.31
2019-03-08T12:45:12.582Z,9.14
2019-03-08T12:48:02.111Z,9.14
2019-03-08T12:50:32.229Z,9.35
2019-03-08T12:53:02.354Z,9.38
2019-03-08T12:55:41.298Z,9.25
2019-03-08T12:58:25.135Z,9.27
2019-03-08T13:01:05.554Z,9.60
2019-03-08T13:03:35.679Z,9.98
2019-03-08T13:06:08.742Z,10.32
2019-03-08T13:08:47.822Z,10.63
2019-03-08T13:11:16.320Z,10.89
2019-03-08T13:13:44.881Z,10.57
2019-03-08T13:16:13.756Z,11.30
2019-03-08T13:18:42.297Z,11.40
2019-03-08T13:21:10.792Z,11.37
2019-03-08T13:23:39.365Z,11.43
2019-03-08T13:26:07.871Z,11.80
2019-03-08T13:28:36.343Z,11.88
2019-03-08T13:31:05.089Z,12.16
2019-03-08T13:33:34.532Z,12.29
2019-03-08T13:36:03.036Z,12.40
2019-03-08T13:38:31.570Z,12.20
2019-03-08T13:41:00.104Z,12.44
2019-03-08T13:43:31.348Z,11.75
2019-03-08T13:45:59.847Z,11.45
2019-03-08T13:48:28.425Z,11.12
2019-03-08T13:50:56.966Z,10.62
2019-03-08T13:53:25.470Z,10.76
2019-03-08T13:55:54.022Z,10.74
2019-03-08T13:58:22.555Z,10.72
2019-03-08T14:00:51.100Z,10.72
2019-03-08T14:03:21.242Z,10.74
2019-03-08T14:05:52.531Z,10.76
2019-03-08T14:08:21.194Z,10.55
2019-03-08T14:10:49.706Z,10.33
2019-03-08T14:13:18.391Z,10.27
2019-03-08T14:15:46.859Z,10.25
2019-03-08T14:18:16.881Z,10.25
2019-03-08T14:20:45.577Z,10.02
2019-03-08T14:23:14.080Z,9.78
2019-03-08T14:25:47.639Z,9.56
2019-03-08T14:28:15.825Z,9.53
2019-03-08T14:30:57.534Z,9.54
2019-03-08T14:33:19.529Z,9.44
2019-03-08T14:35:51.108Z,9.54
2019-03-08T14:38:19.676Z,9.56
2019-03-08T14:40:53.402Z,9.55
2019-03-08T14:43:21.675Z,9.72
2019-03-08T14:45:54.610Z,9.73
2019-03-08T14:48:23.734Z,9.57
2019-03-08T14:50:52.199Z,9.65
2019-03-08T14:53:20.755Z,9.70
2019-03-08T14:55:49.524Z,9.78
2019-03-08T14:58:20.869Z,9.86
2019-03-08T15:00:49.409Z,9.83
2019-03-08T15:03:20.120Z,9.84
2019-03-08T15:05:51.186Z,9.66
2019-03-08T15:08:19.282Z,9.64
2019-03-08T15:10:51.145Z,9.59
2019-03-08T15:13:20.150Z,9.40
2019-03-08T15:15:48.573Z,9.02
2019-03-08T15:18:21.502Z,8.95
2019-03-08T15:20:54.861Z,8.80
2019-03-08T15:23:23.230Z,8.79
2019-03-08T15:25:51.870Z,8.84
2019-03-08T15:28:20.336Z,8.87
2019-03-08T15:30:48.820Z,8.75
2019-03-08T15:33:17.283Z,8.66
2019-03-08T15:35:45.751Z,8.57
2019-03-08T15:38:14.289Z,8.56
2019-03-08T15:40:42.841Z,8.55
2019-03-08T15:43:13.634Z,8.42
2019-03-08T15:45:44.398Z,8.38
2019-03-08T15:48:14.631Z,8.36
2019-03-08T15:50:46.744Z,8.24
2019-03-08T15:53:14.503Z,8.32
2019-03-08T15:55:52.438Z,8.30
2019-03-08T15:58:13.705Z,8.20
2019-03-08T16:00:45.345Z,8.16
2019-03-08T16:03:13.912Z,8.17
2019-03-08T16:05:42.714Z,8.12
2019-03-08T16:08:11.614Z,8.03
2019-03-08T16:10:44.941Z,8.08
2019-03-08T16:13:13.774Z,8.07
2019-03-08T16:15:42.533Z,8.02
2019-03-08T16:18:13.476Z,7.98
2019-03-08T16:20:42.197Z,7.93
2019-03-08T16:23:11.178Z,7.89
2019-03-08T16:25:41.065Z,7.84
2019-03-08T16:28:14.917Z,7.72
2019-03-08T16:30:52.792Z,7.66
2019-03-08T16:33:25.533Z,7.61
2019-03-08T16:35:57.562Z,7.68
2019-03-08T16:38:31.060Z,7.57
2019-03-08T16:41:16.117Z,7.54
2019-03-08T16:43:54.059Z,7.47
2019-03-08T16:46:29.554Z,7.36
2019-03-08T16:49:05.519Z,7.26
2019-03-08T16:51:51.964Z,7.29
2019-03-08T16:54:27.580Z,7.28
2019-03-08T16:57:03.902Z,7.22
2019-03-08T16:59:43.796Z,7.16
2019-03-08T17:02:16.802Z,7.17
2019-03-08T17:04:58.842Z,7.14
2019-03-08T17:07:29.546Z,7.03
2019-03-08T17:10:08.911Z,5.67
2019-03-08T17:12:41.791Z,6.96
2019-03-08T17:15:13.899Z,6.91
2019-03-08T17:18:00.229Z,6.85
2019-03-08T17:20:36.525Z,6.89
2019-03-08T17:23:06.943Z,6.88
2019-03-08T17:25:38.930Z,6.85
2019-03-08T17:28:17.978Z,6.83
2019-03-08T17:30:51.023Z,6.84
2019-03-08T17:33:26.999Z,6.80
2019-03-08T17:35:59.614Z,6.51
2019-03-08T17:38:29.774Z,6.71
2019-03-08T17:41:18.010Z,6.65
2019-03-08T17:43:50.825Z,6.59
2019-03-08T17:46:20.955Z,6.47
2019-03-08T17:48:55.285Z,6.34
2019-03-08T17:51:42.717Z,6.29
2019-03-08T17:54:24.250Z,6.23
2019-03-08T17:57:10.899Z,6.14
2019-03-08T17:59:44.209Z,6.07
2019-03-08T18:02:25.374Z,5.98
2019-03-08T18:05:05.847Z,5.97
2019-03-08T18:07:52.386Z,5.94
2019-03-08T18:10:23.223Z,5.96
2019-03-08T18:12:55.757Z,5.89
2019-03-08T18:15:32.395Z,5.92
2019-03-08T18:18:05.721Z,5.90
2019-03-08T18:20:41.836Z,5.96
2019-03-08T18:23:14.527Z,5.97
2019-03-08T18:25:44.645Z,5.99
2019-03-08T18:28:30.639Z,6.04
2019-03-08T18:31:03.073Z,6.03
2019-03-08T18:37:03.991Z,6.04
2019-03-08T18:39:45.820Z,6.03
2019-03-08T18:42:15.906Z,5.98
2019-03-08T18:44:48.998Z,6.00
2019-03-08T18:47:19.149Z,6.03
2019-03-08T18:49:49.253Z,6.06
2019-03-08T18:52:35.811Z,6.06
2019-03-08T18:55:23.878Z,6.03
2019-03-08T18:58:10.376Z,6.03
2019-03-08T19:00:40.491Z,5.96
2019-03-08T19:03:25.695Z,5.93
2019-03-08T19:06:05.173Z,5.92
2019-03-08T19:08:40.956Z,5.90
2019-03-08T19:11:11.075Z,5.88
2019-03-08T19:13:49.460Z,5.83
2019-03-08T19:16:19.569Z,5.85
2019-03-08T19:19:01.857Z,5.89
2019-03-08T19:21:41.975Z,5.91
2019-03-08T19:24:23.655Z,5.92
2019-03-08T19:27:02.270Z,5.92
2019-03-08T19:29:49.046Z,5.92
2019-03-08T19:32:19.188Z,6.00
2019-03-08T19:34:58.588Z,5.99
2019-03-08T19:37:32.353Z,5.98
2019-03-08T19:40:11.516Z,5.95
2019-03-08T19:42:42.897Z,5.96
2019-03-08T19:45:25.335Z,5.94
2019-03-08T19:47:58.823Z,5.92
2019-03-08T19:50:32.051Z,5.95
2019-03-08T19:53:11.580Z,5.98
2019-03-08T19:55:41.787Z,5.96
2019-03-08T19:58:23.996Z,5.90
2019-03-08T20:01:06.201Z,4.77
2019-03-08T20:03:48.578Z,5.76
2019-03-08T20:06:24.477Z,5.63
2019-03-08T20:08:54.684Z,5.61
2019-03-08T20:11:33.581Z,5.56
2019-03-08T20:14:06.388Z,5.45
2019-03-08T20:16:51.470Z,5.42
2019-03-08T20:19:28.009Z,5.29
2019-03-08T20:22:00.994Z,5.35
2019-03-08T20:24:46.492Z,5.21
2019-03-08T20:27:33.107Z,5.25
2019-03-08T20:30:12.603Z,5.14
2019-03-08T20:32:45.510Z,5.15
2019-03-08T20:35:24.925Z,5.14
2019-03-08T20:38:13.217Z,5.14
2019-03-08T20:41:00.092Z,5.07
2019-03-08T20:43:34.006Z,5.10
2019-03-08T20:46:14.970Z,5.05
2019-03-08T20:48:43.232Z,5.07
2019-03-08T20:51:13.477Z,5.20
2019-03-08T20:53:41.980Z,5.14
2019-03-08T20:56:10.474Z,5.15
2019-03-08T20:58:38.976Z,5.20
2019-03-08T21:01:07.596Z,5.17
2019-03-08T21:03:39.259Z,5.24
2019-03-08T21:06:07.831Z,5.26
2019-03-08T21:08:41.306Z,5.26
2019-03-08T21:11:09.300Z,5.25
2019-03-08T21:13:37.772Z,5.22
2019-03-08T21:16:06.329Z,5.23
2019-03-08T21:18:36.411Z,5.23
2019-03-08T21:21:05.133Z,5.24
2019-03-08T21:23:36.184Z,5.26
2019-03-08T21:26:06.268Z,5.38
2019-03-08T21:28:34.835Z,5.25
2019-03-08T21:31:03.753Z,5.27
2019-03-08T21:33:34.298Z,5.27
2019-03-08T21:36:07.052Z,5.29
2019-03-08T21:38:35.553Z,5.22
2019-03-08T21:41:04.088Z,5.21
2019-03-08T21:43:32.578Z,5.18
2019-03-08T21:46:02.679Z,5.22
2019-03-08T21:48:31.148Z,5.30
2019-03-08T21:50:59.745Z,5.31
2019-03-08T22:00:32.258Z,5.25
2019-03-08T22:03:06.750Z,5.18
2019-03-08T22:05:32.634Z,5.21
2019-03-08T22:08:01.113Z,5.16
2019-03-08T22:10:34.271Z,5.14
2019-03-08T22:13:02.847Z,5.09
2019-03-08T22:15:31.382Z,5.18
2019-03-08T22:17:59.848Z,5.17
2019-03-08T22:20:28.480Z,5.15
2019-03-08T22:22:56.945Z,5.18
2019-03-08T22:25:26.112Z,5.28
2019-03-08T22:27:54.597Z,5.24
2019-03-08T22:30:23.211Z,5.29
2019-03-08T22:32:51.677Z,5.28
2019-03-08T22:35:26.525Z,5.34
2019-03-08T22:37:55.205Z,5.30
2019-03-08T22:40:23.778Z,5.14
2019-03-08T22:42:54.023Z,5.33
2019-03-08T22:45:22.617Z,5.21
2019-03-08T22:47:51.097Z,5.21
2019-03-08T22:50:34.065Z,5.11
2019-03-08T22:53:04.421Z,5.13
2019-03-08T22:55:33.121Z,5.15
2019-03-08T22:58:01.587Z,5.16
2019-03-08T23:00:55.579Z,5.12
2019-03-08T23:03:25.499Z,5.04
2019-03-08T23:05:54.059Z,5.04
2019-03-08T23:08:22.665Z,5.03
2019-03-08T23:10:51.331Z,5.05
2019-03-08T23:13:21.328Z,5.08
2019-03-08T23:15:51.508Z,5.16
2019-03-08T23:18:20.047Z,5.23
2019-03-08T23:20:48.483Z,5.28
2019-03-08T23:23:17.338Z,5.16
2019-03-08T23:25:45.879Z,5.28
2019-03-08T23:28:21.743Z,5.29
2019-03-08T23:30:58.407Z,5.36
2019-03-08T23:33:27.163Z,5.20
2019-03-08T23:35:57.525Z,5.34
2019-03-08T23:38:25.960Z,5.37
2019-03-08T23:40:56.700Z,5.30
2019-03-08T23:43:24.725Z,5.26
2019-03-08T23:45:53.383Z,5.29
2019-03-08T23:48:21.882Z,5.27
2019-03-08T23:50:51.888Z,5.18
2019-03-08T23:53:20.417Z,5.23
2019-03-08T23:55:48.859Z,5.18
2019-03-08T23:58:17.344Z,5.14
